sensor_id;sensor_type;location;lat;lon;timestamp;P1;durP1;ratioP1;P2;durP2;ratioP2
37641;SDS011;23486;51.956;5.888;2023-01-28T00:01:09;8.77;;;5.55;;
37641;SDS011;23486;51.956;5.888;2023-01-28T00:03:36;9.70;;;5.82;;
37641;SDS011;23486;51.956;5.888;2023-01-28T00:06:03;9.18;;;6.07;;
37641;SDS011;23486;51.956;5.888;2023-01-28T00:08:30;9.88;;;6.25;;
37641;SDS011;23486;51.956;5.888;2023-01-28T00:10:58;8.05;;;4.93;;
37641;SDS011;23486;51.956;5.888;2023-01-28T00:13:29;9.05;;;6.03;;
37641;SDS011;23486;51.956;5.888;2023-01-28T00:15:55;8.23;;;5.10;;
37641;SDS011;23486;51.956;5.888;2023-01-28T00:18:26;6.93;;;4.55;;
37641;SDS011;23486;51.956;5.888;2023-01-28T00:21:11;9.07;;;5.68;;
37641;SDS011;23486;51.956;5.888;2023-01-28T00:23:38;7.60;;;4.68;;
37641;SDS011;23486;51.956;5.888;2023-01-28T00:26:07;6.63;;;4.20;;
37641;SDS011;23486;51.956;5.888;2023-01-28T00:28:37;8.65;;;4.78;;
37641;SDS011;23486;51.956;5.888;2023-01-28T00:31:07;7.75;;;4.75;;
37641;SDS011;23486;51.956;5.888;2023-01-28T00:33:36;5.97;;;3.80;;
37641;SDS011;23486;51.956;5.888;2023-01-28T00:36:02;6.82;;;3.83;;
37641;SDS011;23486;51.956;5.888;2023-01-28T00:38:30;7.05;;;4.18;;
37641;SDS011;23486;51.956;5.888;2023-01-28T00:41:05;6.60;;;4.30;;
37641;SDS011;23486;51.956;5.888;2023-01-28T00:43:35;6.35;;;4.10;;
37641;SDS011;23486;51.956;5.888;2023-01-28T00:46:02;7.20;;;4.40;;
37641;SDS011;23486;51.956;5.888;2023-01-28T00:48:32;6.28;;;4.03;;
37641;SDS011;23486;51.956;5.888;2023-01-28T00:51:01;7.78;;;4.82;;
37641;SDS011;23486;51.956;5.888;2023-01-28T00:53:27;8.73;;;5.05;;
37641;SDS011;23486;51.956;5.888;2023-01-28T00:55:53;12.00;;;5.32;;
37641;SDS011;23486;51.956;5.888;2023-01-28T00:58:19;8.00;;;5.28;;
37641;SDS011;23486;51.956;5.888;2023-01-28T01:00:45;8.70;;;5.13;;
37641;SDS011;23486;51.956;5.888;2023-01-28T01:03:13;7.05;;;4.88;;
37641;SDS011;23486;51.956;5.888;2023-01-28T01:05:39;9.13;;;5.35;;
37641;SDS011;23486;51.956;5.888;2023-01-28T01:08:05;12.25;;;5.88;;
37641;SDS011;23486;51.956;5.888;2023-01-28T01:10:30;9.10;;;5.15;;
37641;SDS011;23486;51.956;5.888;2023-01-28T01:12:59;9.57;;;6.47;;
37641;SDS011;23486;51.956;5.888;2023-01-28T01:15:25;11.95;;;6.57;;
37641;SDS011;23486;51.956;5.888;2023-01-28T01:17:50;11.90;;;7.93;;
37641;SDS011;23486;51.956;5.888;2023-01-28T01:20:22;11.20;;;6.70;;
37641;SDS011;23486;51.956;5.888;2023-01-28T01:22:49;13.32;;;6.90;;
37641;SDS011;23486;51.956;5.888;2023-01-28T01:25:15;11.95;;;6.90;;
37641;SDS011;23486;51.956;5.888;2023-01-28T01:27:42;11.60;;;6.70;;
37641;SDS011;23486;51.956;5.888;2023-01-28T01:30:10;11.55;;;6.78;;
37641;SDS011;23486;51.956;5.888;2023-01-28T01:32:39;12.18;;;6.53;;
37641;SDS011;23486;51.956;5.888;2023-01-28T01:35:04;9.32;;;5.88;;
37641;SDS011;23486;51.956;5.888;2023-01-28T01:37:37;8.63;;;6.00;;
37641;SDS011;23486;51.956;5.888;2023-01-28T01:40:03;11.02;;;6.57;;
37641;SDS011;23486;51.956;5.888;2023-01-28T01:42:30;9.65;;;6.07;;
37641;SDS011;23486;51.956;5.888;2023-01-28T01:50:35;9.88;;;5.82;;
37641;SDS011;23486;51.956;5.888;2023-01-28T01:53:14;9.98;;;6.40;;
37641;SDS011;23486;51.956;5.888;2023-01-28T01:55:42;8.88;;;6.00;;
37641;SDS011;23486;51.956;5.888;2023-01-28T01:58:16;8.35;;;4.70;;
37641;SDS011;23486;51.956;5.888;2023-01-28T02:00:45;9.63;;;6.03;;
37641;SDS011;23486;51.956;5.888;2023-01-28T02:03:11;9.55;;;6.00;;
37641;SDS011;23486;51.956;5.888;2023-01-28T02:05:37;9.07;;;5.35;;
37641;SDS011;23486;51.956;5.888;2023-01-28T02:08:04;8.57;;;5.07;;
37641;SDS011;23486;51.956;5.888;2023-01-28T02:10:48;9.55;;;5.40;;
37641;SDS011;23486;51.956;5.888;2023-01-28T02:13:21;8.02;;;4.82;;
37641;SDS011;23486;51.956;5.888;2023-01-28T02:15:53;9.85;;;5.78;;
37641;SDS011;23486;51.956;5.888;2023-01-28T02:18:19;9.30;;;5.47;;
37641;SDS011;23486;51.956;5.888;2023-01-28T02:21:03;8.25;;;4.95;;
37641;SDS011;23486;51.956;5.888;2023-01-28T02:29:31;8.02;;;4.80;;
37641;SDS011;23486;51.956;5.888;2023-01-28T02:32:20;9.38;;;5.55;;
37641;SDS011;23486;51.956;5.888;2023-01-28T02:35:44;9.00;;;5.53;;
37641;SDS011;23486;51.956;5.888;2023-01-28T02:38:14;9.63;;;5.60;;
37641;SDS011;23486;51.956;5.888;2023-01-28T02:40:45;9.35;;;5.78;;
37641;SDS011;23486;51.956;5.888;2023-01-28T02:49:18;12.75;;;8.18;;
37641;SDS011;23486;51.956;5.888;2023-01-28T03:05:44;13.90;;;7.82;;
37641;SDS011;23486;51.956;5.888;2023-01-28T03:08:38;15.40;;;9.75;;
37641;SDS011;23486;51.956;5.888;2023-01-28T03:11:35;12.63;;;8.15;;
37641;SDS011;23486;51.956;5.888;2023-01-28T03:14:23;14.77;;;8.15;;
37641;SDS011;23486;51.956;5.888;2023-01-28T03:17:14;17.02;;;9.27;;
37641;SDS011;23486;51.956;5.888;2023-01-28T03:20:04;14.98;;;9.40;;
37641;SDS011;23486;51.956;5.888;2023-01-28T03:22:49;15.00;;;8.93;;
37641;SDS011;23486;51.956;5.888;2023-01-28T03:25:36;16.20;;;9.20;;
37641;SDS011;23486;51.956;5.888;2023-01-28T03:28:23;13.48;;;8.13;;
37641;SDS011;23486;51.956;5.888;2023-01-28T03:31:09;15.65;;;9.25;;
37641;SDS011;23486;51.956;5.888;2023-01-28T03:33:56;18.90;;;10.18;;
37641;SDS011;23486;51.956;5.888;2023-01-28T03:36:42;15.38;;;8.30;;
37641;SDS011;23486;51.956;5.888;2023-01-28T03:39:33;15.68;;;9.18;;
37641;SDS011;23486;51.956;5.888;2023-01-28T03:44:27;13.77;;;8.30;;
37641;SDS011;23486;51.956;5.888;2023-01-28T03:47:14;12.30;;;7.65;;
37641;SDS011;23486;51.956;5.888;2023-01-28T03:49:46;12.90;;;7.65;;
37641;SDS011;23486;51.956;5.888;2023-01-28T03:52:13;13.25;;;7.90;;
37641;SDS011;23486;51.956;5.888;2023-01-28T03:54:44;14.02;;;8.65;;
37641;SDS011;23486;51.956;5.888;2023-01-28T03:57:17;15.60;;;9.32;;
37641;SDS011;23486;51.956;5.888;2023-01-28T03:59:45;13.52;;;8.30;;
37641;SDS011;23486;51.956;5.888;2023-01-28T04:02:13;16.27;;;9.70;;
37641;SDS011;23486;51.956;5.888;2023-01-28T04:04:39;15.65;;;8.35;;
37641;SDS011;23486;51.956;5.888;2023-01-28T04:07:06;12.45;;;8.13;;
37641;SDS011;23486;51.956;5.888;2023-01-28T04:09:34;14.70;;;8.88;;
37641;SDS011;23486;51.956;5.888;2023-01-28T04:12:03;14.98;;;9.10;;
37641;SDS011;23486;51.956;5.888;2023-01-28T04:14:29;14.25;;;8.40;;
37641;SDS011;23486;51.956;5.888;2023-01-28T04:16:55;13.88;;;8.68;;
37641;SDS011;23486;51.956;5.888;2023-01-28T04:19:21;14.45;;;8.48;;
37641;SDS011;23486;51.956;5.888;2023-01-28T04:21:47;13.68;;;7.80;;
37641;SDS011;23486;51.956;5.888;2023-01-28T04:24:13;11.85;;;7.13;;
37641;SDS011;23486;51.956;5.888;2023-01-28T04:26:41;10.52;;;6.22;;
37641;SDS011;23486;51.956;5.888;2023-01-28T04:29:07;11.90;;;7.18;;
37641;SDS011;23486;51.956;5.888;2023-01-28T04:31:33;13.82;;;7.93;;
37641;SDS011;23486;51.956;5.888;2023-01-28T04:33:58;12.73;;;7.78;;
37641;SDS011;23486;51.956;5.888;2023-01-28T04:36:24;14.20;;;8.55;;
37641;SDS011;23486;51.956;5.888;2023-01-28T04:38:50;14.60;;;9.15;;
37641;SDS011;23486;51.956;5.888;2023-01-28T04:41:16;12.00;;;8.20;;
37641;SDS011;23486;51.956;5.888;2023-01-28T04:43:42;13.05;;;7.80;;
37641;SDS011;23486;51.956;5.888;2023-01-28T04:46:10;13.57;;;7.60;;
37641;SDS011;23486;51.956;5.888;2023-01-28T04:48:35;11.32;;;7.53;;
37641;SDS011;23486;51.956;5.888;2023-01-28T04:51:01;13.82;;;8.10;;
37641;SDS011;23486;51.956;5.888;2023-01-28T04:53:27;11.70;;;6.78;;
37641;SDS011;23486;51.956;5.888;2023-01-28T04:55:53;13.55;;;7.97;;
37641;SDS011;23486;51.956;5.888;2023-01-28T04:58:22;12.65;;;7.50;;
37641;SDS011;23486;51.956;5.888;2023-01-28T05:00:55;13.88;;;7.68;;
37641;SDS011;23486;51.956;5.888;2023-01-28T05:03:22;12.18;;;7.75;;
37641;SDS011;23486;51.956;5.888;2023-01-28T05:05:48;10.27;;;6.45;;
37641;SDS011;23486;51.956;5.888;2023-01-28T05:08:14;12.35;;;7.18;;
37641;SDS011;23486;51.956;5.888;2023-01-28T05:10:40;14.93;;;8.93;;
37641;SDS011;23486;51.956;5.888;2023-01-28T05:13:08;11.50;;;7.80;;
37641;SDS011;23486;51.956;5.888;2023-01-28T05:15:37;14.30;;;8.55;;
37641;SDS011;23486;51.956;5.888;2023-01-28T05:18:03;15.85;;;8.18;;
37641;SDS011;23486;51.956;5.888;2023-01-28T05:20:28;13.88;;;8.70;;
37641;SDS011;23486;51.956;5.888;2023-01-28T05:22:54;13.02;;;7.95;;
37641;SDS011;23486;51.956;5.888;2023-01-28T05:25:19;14.40;;;8.45;;
37641;SDS011;23486;51.956;5.888;2023-01-28T05:27:49;15.52;;;9.05;;
37641;SDS011;23486;51.956;5.888;2023-01-28T05:30:18;14.13;;;7.83;;
37641;SDS011;23486;51.956;5.888;2023-01-28T05:32:56;13.98;;;9.25;;
37641;SDS011;23486;51.956;5.888;2023-01-28T05:35:22;15.23;;;9.23;;
37641;SDS011;23486;51.956;5.888;2023-01-28T05:37:48;11.93;;;7.30;;
37641;SDS011;23486;51.956;5.888;2023-01-28T05:40:13;12.65;;;7.25;;
37641;SDS011;23486;51.956;5.888;2023-01-28T05:42:39;12.27;;;7.38;;
37641;SDS011;23486;51.956;5.888;2023-01-28T05:45:05;15.25;;;8.75;;
37641;SDS011;23486;51.956;5.888;2023-01-28T05:47:32;17.02;;;9.65;;
37641;SDS011;23486;51.956;5.888;2023-01-28T05:49:57;13.82;;;8.05;;
37641;SDS011;23486;51.956;5.888;2023-01-28T05:52:23;12.98;;;7.35;;
37641;SDS011;23486;51.956;5.888;2023-01-28T05:54:48;14.98;;;7.22;;
37641;SDS011;23486;51.956;5.888;2023-01-28T05:57:14;11.60;;;7.03;;
37641;SDS011;23486;51.956;5.888;2023-01-28T05:59:39;12.13;;;7.15;;
37641;SDS011;23486;51.956;5.888;2023-01-28T06:02:08;14.80;;;8.13;;
37641;SDS011;23486;51.956;5.888;2023-01-28T06:04:34;14.13;;;8.18;;
37641;SDS011;23486;51.956;5.888;2023-01-28T06:06:59;14.40;;;8.38;;
37641;SDS011;23486;51.956;5.888;2023-01-28T06:09:25;16.60;;;8.77;;
37641;SDS011;23486;51.956;5.888;2023-01-28T06:11:51;17.30;;;9.90;;
37641;SDS011;23486;51.956;5.888;2023-01-28T06:14:17;14.23;;;7.97;;
37641;SDS011;23486;51.956;5.888;2023-01-28T06:16:43;15.25;;;8.07;;
37641;SDS011;23486;51.956;5.888;2023-01-28T06:19:08;14.10;;;7.78;;
37641;SDS011;23486;51.956;5.888;2023-01-28T06:21:34;18.70;;;10.18;;
37641;SDS011;23486;51.956;5.888;2023-01-28T06:24:00;18.45;;;9.48;;
37641;SDS011;23486;51.956;5.888;2023-01-28T06:26:25;14.18;;;8.07;;
37641;SDS011;23486;51.956;5.888;2023-01-28T06:28:51;15.65;;;8.50;;
37641;SDS011;23486;51.956;5.888;2023-01-28T06:31:16;18.73;;;9.70;;
37641;SDS011;23486;51.956;5.888;2023-01-28T06:33:43;17.92;;;9.88;;
37641;SDS011;23486;51.956;5.888;2023-01-28T06:36:08;15.90;;;8.93;;
37641;SDS011;23486;51.956;5.888;2023-01-28T06:38:34;15.13;;;8.63;;
37641;SDS011;23486;51.956;5.888;2023-01-28T06:41:00;15.13;;;8.30;;
37641;SDS011;23486;51.956;5.888;2023-01-28T06:43:25;15.00;;;8.05;;
37641;SDS011;23486;51.956;5.888;2023-01-28T06:45:54;15.27;;;8.35;;
37641;SDS011;23486;51.956;5.888;2023-01-28T06:48:24;13.32;;;7.60;;
37641;SDS011;23486;51.956;5.888;2023-01-28T06:50:53;13.80;;;7.97;;
37641;SDS011;23486;51.956;5.888;2023-01-28T06:53:18;13.77;;;6.53;;
37641;SDS011;23486;51.956;5.888;2023-01-28T06:55:44;13.25;;;6.68;;
37641;SDS011;23486;51.956;5.888;2023-01-28T06:58:10;13.93;;;7.43;;
37641;SDS011;23486;51.956;5.888;2023-01-28T07:00:36;16.55;;;9.07;;
37641;SDS011;23486;51.956;5.888;2023-01-28T07:03:02;15.15;;;9.23;;
37641;SDS011;23486;51.956;5.888;2023-01-28T07:05:28;18.25;;;9.88;;
37641;SDS011;23486;51.956;5.888;2023-01-28T07:07:54;16.30;;;10.30;;
37641;SDS011;23486;51.956;5.888;2023-01-28T07:10:20;18.38;;;10.60;;
37641;SDS011;23486;51.956;5.888;2023-01-28T07:12:46;17.40;;;9.18;;
37641;SDS011;23486;51.956;5.888;2023-01-28T07:15:11;18.92;;;10.57;;
37641;SDS011;23486;51.956;5.888;2023-01-28T07:17:39;19.15;;;9.70;;
37641;SDS011;23486;51.956;5.888;2023-01-28T07:20:06;15.27;;;9.70;;
37641;SDS011;23486;51.956;5.888;2023-01-28T07:22:36;15.50;;;9.20;;
37641;SDS011;23486;51.956;5.888;2023-01-28T07:25:04;13.40;;;8.63;;
37641;SDS011;23486;51.956;5.888;2023-01-28T07:27:30;15.55;;;9.18;;
37641;SDS011;23486;51.956;5.888;2023-01-28T07:29:56;21.48;;;11.93;;
37641;SDS011;23486;51.956;5.888;2023-01-28T07:32:22;17.27;;;10.52;;
37641;SDS011;23486;51.956;5.888;2023-01-28T07:34:47;16.45;;;10.02;;
37641;SDS011;23486;51.956;5.888;2023-01-28T07:37:13;14.57;;;8.85;;
37641;SDS011;23486;51.956;5.888;2023-01-28T07:39:39;20.45;;;11.60;;
37641;SDS011;23486;51.956;5.888;2023-01-28T07:42:07;18.42;;;11.27;;
37641;SDS011;23486;51.956;5.888;2023-01-28T07:44:33;17.23;;;10.18;;
37641;SDS011;23486;51.956;5.888;2023-01-28T07:47:00;18.55;;;10.60;;
37641;SDS011;23486;51.956;5.888;2023-01-28T07:49:27;15.25;;;9.05;;
37641;SDS011;23486;51.956;5.888;2023-01-28T07:51:55;16.08;;;8.90;;
37641;SDS011;23486;51.956;5.888;2023-01-28T07:54:21;14.93;;;8.98;;
37641;SDS011;23486;51.956;5.888;2023-01-28T07:56:49;14.68;;;8.95;;
37641;SDS011;23486;51.956;5.888;2023-01-28T07:59:15;14.07;;;8.07;;
37641;SDS011;23486;51.956;5.888;2023-01-28T08:01:40;23.70;;;12.95;;
37641;SDS011;23486;51.956;5.888;2023-01-28T08:04:06;18.10;;;10.65;;
37641;SDS011;23486;51.956;5.888;2023-01-28T08:06:31;17.80;;;10.07;;
37641;SDS011;23486;51.956;5.888;2023-01-28T08:09:02;19.70;;;10.27;;
37641;SDS011;23486;51.956;5.888;2023-01-28T08:11:32;18.83;;;9.60;;
37641;SDS011;23486;51.956;5.888;2023-01-28T08:14:01;16.65;;;10.07;;
37641;SDS011;23486;51.956;5.888;2023-01-28T08:16:27;17.58;;;9.38;;
37641;SDS011;23486;51.956;5.888;2023-01-28T08:18:53;17.25;;;10.88;;
37641;SDS011;23486;51.956;5.888;2023-01-28T08:21:19;16.13;;;10.13;;
37641;SDS011;23486;51.956;5.888;2023-01-28T08:23:44;17.48;;;10.43;;
37641;SDS011;23486;51.956;5.888;2023-01-28T08:26:10;15.07;;;9.25;;
37641;SDS011;23486;51.956;5.888;2023-01-28T08:28:35;13.98;;;8.25;;
37641;SDS011;23486;51.956;5.888;2023-01-28T08:31:01;15.48;;;9.35;;
37641;SDS011;23486;51.956;5.888;2023-01-28T08:33:30;14.55;;;8.90;;
37641;SDS011;23486;51.956;5.888;2023-01-28T08:35:55;16.35;;;8.65;;
37641;SDS011;23486;51.956;5.888;2023-01-28T08:38:22;13.90;;;7.95;;
37641;SDS011;23486;51.956;5.888;2023-01-28T08:40:48;14.80;;;8.27;;
37641;SDS011;23486;51.956;5.888;2023-01-28T08:43:14;16.88;;;8.25;;
37641;SDS011;23486;51.956;5.888;2023-01-28T08:45:40;14.63;;;8.93;;
37641;SDS011;23486;51.956;5.888;2023-01-28T08:48:06;15.20;;;8.70;;
37641;SDS011;23486;51.956;5.888;2023-01-28T08:50:35;12.95;;;7.60;;
37641;SDS011;23486;51.956;5.888;2023-01-28T08:53:04;14.85;;;8.90;;
37641;SDS011;23486;51.956;5.888;2023-01-28T08:55:32;15.20;;;10.10;;
37641;SDS011;23486;51.956;5.888;2023-01-28T08:58:02;14.23;;;8.65;;
37641;SDS011;23486;51.956;5.888;2023-01-28T09:00:29;15.25;;;8.70;;
37641;SDS011;23486;51.956;5.888;2023-01-28T09:02:54;14.63;;;9.48;;
37641;SDS011;23486;51.956;5.888;2023-01-28T09:05:20;14.18;;;8.48;;
37641;SDS011;23486;51.956;5.888;2023-01-28T09:07:46;12.57;;;8.60;;
37641;SDS011;23486;51.956;5.888;2023-01-28T09:10:12;12.93;;;7.90;;
37641;SDS011;23486;51.956;5.888;2023-01-28T09:12:41;12.45;;;7.72;;
37641;SDS011;23486;51.956;5.888;2023-01-28T09:15:07;12.43;;;7.05;;
37641;SDS011;23486;51.956;5.888;2023-01-28T09:17:36;13.38;;;7.80;;
37641;SDS011;23486;51.956;5.888;2023-01-28T09:20:02;14.20;;;9.07;;
37641;SDS011;23486;51.956;5.888;2023-01-28T09:22:31;12.38;;;7.78;;
37641;SDS011;23486;51.956;5.888;2023-01-28T09:25:00;13.05;;;9.10;;
37641;SDS011;23486;51.956;5.888;2023-01-28T09:27:25;11.40;;;7.65;;
37641;SDS011;23486;51.956;5.888;2023-01-28T09:29:51;13.90;;;7.93;;
37641;SDS011;23486;51.956;5.888;2023-01-28T09:32:16;13.30;;;9.05;;
37641;SDS011;23486;51.956;5.888;2023-01-28T09:34:45;12.70;;;8.98;;
37641;SDS011;23486;51.956;5.888;2023-01-28T09:37:10;13.32;;;8.48;;
37641;SDS011;23486;51.956;5.888;2023-01-28T09:39:36;13.02;;;8.40;;
37641;SDS011;23486;51.956;5.888;2023-01-28T09:47:23;12.77;;;8.00;;
37641;SDS011;23486;51.956;5.888;2023-01-28T09:49:52;11.82;;;7.75;;
37641;SDS011;23486;51.956;5.888;2023-01-28T09:52:21;10.32;;;6.60;;
37641;SDS011;23486;51.956;5.888;2023-01-28T09:55:02;11.20;;;7.18;;
37641;SDS011;23486;51.956;5.888;2023-01-28T09:57:38;9.43;;;6.05;;
37641;SDS011;23486;51.956;5.888;2023-01-28T10:00:22;10.23;;;6.13;;
37641;SDS011;23486;51.956;5.888;2023-01-28T10:11:04;10.77;;;6.90;;
37641;SDS011;23486;51.956;5.888;2023-01-28T10:13:50;10.25;;;6.80;;
37641;SDS011;23486;51.956;5.888;2023-01-28T10:16:35;9.52;;;6.15;;
37641;SDS011;23486;51.956;5.888;2023-01-28T10:19:09;10.85;;;6.38;;
37641;SDS011;23486;51.956;5.888;2023-01-28T10:21:45;12.55;;;6.53;;
37641;SDS011;23486;51.956;5.888;2023-01-28T10:24:35;12.18;;;7.43;;
37641;SDS011;23486;51.956;5.888;2023-01-28T10:27:11;10.77;;;6.57;;
37641;SDS011;23486;51.956;5.888;2023-01-28T10:29:43;10.93;;;6.78;;
37641;SDS011;23486;51.956;5.888;2023-01-28T10:34:54;10.30;;;6.57;;
37641;SDS011;23486;51.956;5.888;2023-01-28T10:37:23;10.20;;;6.35;;
37641;SDS011;23486;51.956;5.888;2023-01-28T10:39:50;11.40;;;7.00;;
37641;SDS011;23486;51.956;5.888;2023-01-28T10:44:57;9.25;;;6.38;;
37641;SDS011;23486;51.956;5.888;2023-01-28T10:48:13;10.55;;;6.95;;
37641;SDS011;23486;51.956;5.888;2023-01-28T10:50:37;11.50;;;6.25;;
37641;SDS011;23486;51.956;5.888;2023-01-28T10:53:16;10.18;;;6.00;;
37641;SDS011;23486;51.956;5.888;2023-01-28T10:55:47;7.97;;;5.25;;
37641;SDS011;23486;51.956;5.888;2023-01-28T10:58:19;7.90;;;5.55;;
37641;SDS011;23486;51.956;5.888;2023-01-28T11:00:51;9.23;;;6.13;;
37641;SDS011;23486;51.956;5.888;2023-01-28T11:03:24;9.95;;;6.72;;
37641;SDS011;23486;51.956;5.888;2023-01-28T11:05:55;10.30;;;6.70;;
37641;SDS011;23486;51.956;5.888;2023-01-28T11:08:22;8.70;;;5.97;;
37641;SDS011;23486;51.956;5.888;2023-01-28T11:10:49;9.90;;;5.72;;
37641;SDS011;23486;51.956;5.888;2023-01-28T11:13:17;8.07;;;5.45;;
37641;SDS011;23486;51.956;5.888;2023-01-28T11:18:25;8.45;;;5.45;;
37641;SDS011;23486;51.956;5.888;2023-01-28T11:20:56;7.15;;;4.47;;
37641;SDS011;23486;51.956;5.888;2023-01-28T11:23:29;8.90;;;5.63;;
37641;SDS011;23486;51.956;5.888;2023-01-28T11:25:59;9.38;;;5.47;;
37641;SDS011;23486;51.956;5.888;2023-01-28T11:28:33;8.80;;;5.80;;
37641;SDS011;23486;51.956;5.888;2023-01-28T11:31:03;10.38;;;6.57;;
37641;SDS011;23486;51.956;5.888;2023-01-28T11:33:35;8.43;;;5.53;;
37641;SDS011;23486;51.956;5.888;2023-01-28T11:36:04;8.20;;;5.90;;
37641;SDS011;23486;51.956;5.888;2023-01-28T11:38:46;9.73;;;6.28;;
37641;SDS011;23486;51.956;5.888;2023-01-28T11:41:13;10.85;;;6.70;;
37641;SDS011;23486;51.956;5.888;2023-01-28T11:43:40;11.45;;;7.15;;
37641;SDS011;23486;51.956;5.888;2023-01-28T11:46:24;9.50;;;6.53;;
37641;SDS011;23486;51.956;5.888;2023-01-28T11:49:05;10.90;;;6.80;;
37641;SDS011;23486;51.956;5.888;2023-01-28T11:52:12;12.43;;;6.80;;
37641;SDS011;23486;51.956;5.888;2023-01-28T11:57:33;9.57;;;6.03;;
37641;SDS011;23486;51.956;5.888;2023-01-28T12:22:14;10.88;;;7.15;;
37641;SDS011;23486;51.956;5.888;2023-01-28T12:25:19;12.48;;;7.15;;
37641;SDS011;23486;51.956;5.888;2023-01-28T12:36:51;13.50;;;8.30;;
37641;SDS011;23486;51.956;5.888;2023-01-28T12:41:37;9.52;;;5.82;;
37641;SDS011;23486;51.956;5.888;2023-01-28T12:44:17;13.40;;;7.88;;
37641;SDS011;23486;51.956;5.888;2023-01-28T12:46:56;9.57;;;5.88;;
37641;SDS011;23486;51.956;5.888;2023-01-28T12:52:17;12.25;;;6.18;;
37641;SDS011;23486;51.956;5.888;2023-01-28T12:55:28;13.65;;;8.15;;
37641;SDS011;23486;51.956;5.888;2023-01-28T12:58:06;12.77;;;7.40;;
37641;SDS011;23486;51.956;5.888;2023-01-28T13:00:40;12.52;;;7.78;;
37641;SDS011;23486;51.956;5.888;2023-01-28T13:06:01;11.70;;;7.22;;
37641;SDS011;23486;51.956;5.888;2023-01-28T13:08:36;10.65;;;6.85;;
37641;SDS011;23486;51.956;5.888;2023-01-28T13:11:02;12.32;;;6.80;;
37641;SDS011;23486;51.956;5.888;2023-01-28T13:13:30;12.20;;;7.93;;
37641;SDS011;23486;51.956;5.888;2023-01-28T13:15:59;11.75;;;7.35;;
37641;SDS011;23486;51.956;5.888;2023-01-28T13:26:43;9.85;;;6.05;;
37641;SDS011;23486;51.956;5.888;2023-01-28T13:31:40;10.02;;;6.45;;
37641;SDS011;23486;51.956;5.888;2023-01-28T13:34:10;10.50;;;6.53;;
37641;SDS011;23486;51.956;5.888;2023-01-28T13:36:50;9.55;;;6.35;;
37641;SDS011;23486;51.956;5.888;2023-01-28T13:39:18;12.98;;;7.25;;
37641;SDS011;23486;51.956;5.888;2023-01-28T13:46:49;11.90;;;6.72;;
37641;SDS011;23486;51.956;5.888;2023-01-28T13:49:17;9.57;;;6.22;;
37641;SDS011;23486;51.956;5.888;2023-01-28T13:51:55;11.50;;;7.07;;
37641;SDS011;23486;51.956;5.888;2023-01-28T13:54:49;11.18;;;6.55;;
37641;SDS011;23486;51.956;5.888;2023-01-28T14:03:34;11.27;;;7.30;;
37641;SDS011;23486;51.956;5.888;2023-01-28T14:08:57;11.05;;;7.15;;
37641;SDS011;23486;51.956;5.888;2023-01-28T14:19:40;11.98;;;7.05;;
37641;SDS011;23486;51.956;5.888;2023-01-28T14:22:08;14.50;;;8.52;;
37641;SDS011;23486;51.956;5.888;2023-01-28T14:24:40;9.90;;;7.22;;
37641;SDS011;23486;51.956;5.888;2023-01-28T14:33:01;8.95;;;5.25;;
37641;SDS011;23486;51.956;5.888;2023-01-28T14:35:30;11.15;;;6.75;;
37641;SDS011;23486;51.956;5.888;2023-01-28T14:37:57;9.75;;;6.15;;
37641;SDS011;23486;51.956;5.888;2023-01-28T14:40:24;11.82;;;6.82;;
37641;SDS011;23486;51.956;5.888;2023-01-28T14:42:53;11.35;;;6.53;;
37641;SDS011;23486;51.956;5.888;2023-01-28T14:48:22;11.25;;;6.53;;
37641;SDS011;23486;51.956;5.888;2023-01-28T14:53:38;10.18;;;5.95;;
37641;SDS011;23486;51.956;5.888;2023-01-28T14:59:24;9.43;;;5.68;;
37641;SDS011;23486;51.956;5.888;2023-01-28T15:01:56;11.98;;;6.10;;
37641;SDS011;23486;51.956;5.888;2023-01-28T15:04:26;10.02;;;5.63;;
37641;SDS011;23486;51.956;5.888;2023-01-28T15:07:18;10.18;;;6.20;;
37641;SDS011;23486;51.956;5.888;2023-01-28T15:10:05;9.02;;;5.95;;
37641;SDS011;23486;51.956;5.888;2023-01-28T15:12:36;10.88;;;6.00;;
37641;SDS011;23486;51.956;5.888;2023-01-28T15:15:24;11.07;;;6.13;;
37641;SDS011;23486;51.956;5.888;2023-01-28T15:17:53;10.02;;;5.40;;
37641;SDS011;23486;51.956;5.888;2023-01-28T15:20:21;9.63;;;5.50;;
37641;SDS011;23486;51.956;5.888;2023-01-28T15:22:49;9.43;;;5.78;;
37641;SDS011;23486;51.956;5.888;2023-01-28T15:25:19;10.23;;;6.15;;
37641;SDS011;23486;51.956;5.888;2023-01-28T15:27:47;10.85;;;6.28;;
37641;SDS011;23486;51.956;5.888;2023-01-28T15:30:21;8.90;;;5.38;;
37641;SDS011;23486;51.956;5.888;2023-01-28T15:33:03;10.70;;;5.55;;
37641;SDS011;23486;51.956;5.888;2023-01-28T15:35:30;11.60;;;6.55;;
37641;SDS011;23486;51.956;5.888;2023-01-28T15:38:00;11.63;;;6.88;;
37641;SDS011;23486;51.956;5.888;2023-01-28T15:40:29;11.18;;;6.72;;
37641;SDS011;23486;51.956;5.888;2023-01-28T15:42:55;12.07;;;6.53;;
37641;SDS011;23486;51.956;5.888;2023-01-28T15:45:22;9.48;;;5.88;;
37641;SDS011;23486;51.956;5.888;2023-01-28T15:47:50;11.02;;;6.22;;
37641;SDS011;23486;51.956;5.888;2023-01-28T15:50:25;11.52;;;6.88;;
37641;SDS011;23486;51.956;5.888;2023-01-28T15:52:51;14.13;;;8.00;;
37641;SDS011;23486;51.956;5.888;2023-01-28T15:55:41;13.48;;;7.85;;
37641;SDS011;23486;51.956;5.888;2023-01-28T15:58:19;11.75;;;6.70;;
37641;SDS011;23486;51.956;5.888;2023-01-28T16:00:50;14.43;;;6.93;;
37641;SDS011;23486;51.956;5.888;2023-01-28T16:03:32;17.48;;;7.60;;
37641;SDS011;23486;51.956;5.888;2023-01-28T16:06:01;14.93;;;8.38;;
37641;SDS011;23486;51.956;5.888;2023-01-28T16:08:33;13.25;;;8.18;;
37641;SDS011;23486;51.956;5.888;2023-01-28T16:11:03;14.88;;;8.60;;
37641;SDS011;23486;51.956;5.888;2023-01-28T16:13:31;14.93;;;8.13;;
37641;SDS011;23486;51.956;5.888;2023-01-28T16:15:58;15.57;;;7.63;;
37641;SDS011;23486;51.956;5.888;2023-01-28T16:21:30;15.20;;;8.38;;
37641;SDS011;23486;51.956;5.888;2023-01-28T16:29:44;15.70;;;8.07;;
37641;SDS011;23486;51.956;5.888;2023-01-28T16:35:12;18.60;;;8.40;;
37641;SDS011;23486;51.956;5.888;2023-01-28T16:37:38;14.60;;;7.93;;
37641;SDS011;23486;51.956;5.888;2023-01-28T16:40:04;14.75;;;8.55;;
37641;SDS011;23486;51.956;5.888;2023-01-28T16:42:31;16.17;;;8.43;;
37641;SDS011;23486;51.956;5.888;2023-01-28T16:44:59;14.93;;;8.48;;
37641;SDS011;23486;51.956;5.888;2023-01-28T16:47:25;14.85;;;8.35;;
37641;SDS011;23486;51.956;5.888;2023-01-28T16:49:50;13.40;;;8.13;;
37641;SDS011;23486;51.956;5.888;2023-01-28T16:52:16;14.02;;;7.78;;
37641;SDS011;23486;51.956;5.888;2023-01-28T16:54:42;17.10;;;8.90;;
37641;SDS011;23486;51.956;5.888;2023-01-28T16:57:13;15.45;;;8.55;;
37641;SDS011;23486;51.956;5.888;2023-01-28T16:59:40;14.50;;;8.10;;
37641;SDS011;23486;51.956;5.888;2023-01-28T17:02:15;17.67;;;8.70;;
37641;SDS011;23486;51.956;5.888;2023-01-28T17:04:44;18.80;;;11.60;;
37641;SDS011;23486;51.956;5.888;2023-01-28T17:07:10;19.33;;;10.68;;
37641;SDS011;23486;51.956;5.888;2023-01-28T17:09:36;27.85;;;16.63;;
37641;SDS011;23486;51.956;5.888;2023-01-28T17:12:02;30.48;;;19.33;;
37641;SDS011;23486;51.956;5.888;2023-01-28T17:14:31;30.55;;;18.25;;
37641;SDS011;23486;51.956;5.888;2023-01-28T17:16:56;24.05;;;16.20;;
37641;SDS011;23486;51.956;5.888;2023-01-28T17:19:22;22.00;;;14.25;;
37641;SDS011;23486;51.956;5.888;2023-01-28T17:21:47;20.70;;;13.40;;
37641;SDS011;23486;51.956;5.888;2023-01-28T17:24:13;17.98;;;12.30;;
37641;SDS011;23486;51.956;5.888;2023-01-28T17:26:39;20.77;;;12.80;;
37641;SDS011;23486;51.956;5.888;2023-01-28T17:29:05;19.95;;;11.98;;
37641;SDS011;23486;51.956;5.888;2023-01-28T17:31:32;16.70;;;9.43;;